Enchantment of the Seas — C6FZ7 — position and weather

sailwx.info

Track history (hours):
 
Tides and Currents Weather Stations Pressure Air Temp Water Temp Dewpoint Dewpoint Depression Visibility Wind Speed Wind Dir Waves Ship Positions

Enchantment of the Seas (Bahamas)

Last reported at 2019-Jul-22 13:28 UTC. Time now 2019-Jul-22 13:56 UTC.
Position N 29°19' W 094°48'.

Type: Passenger vessel. MMSI: 311733000.

Date/timePositionNaut miles runAvg speedWind from/ knotsBaromVisibWave heightAir tempDewpointWater temp
2019-Jul-22 13:28N 29°19' W 094°48'0 0.0
2019-Jul-22 12:58N 29°19' W 094°48'0 0.0
2019-Jul-22 12:28N 29°19' W 094°48'0 0.0
2019-Jul-22 11:58N 29°19' W 094°48'0 0.1
2019-Jul-22 11:30N 29°19' W 094°48'1 2.5
2019-Jul-22 11:00N 29°19' W 094°47'5 9.5
2019-Jul-22 10:30N 29°21' W 094°42'713.3
2019-Jul-22 10:00N 29°17' W 094°35'66618.9
2019-Jul-20 22:50N 20°40' W 086°53'721.5
2019-Jul-20 22:31N 20°34' W 086°57'510.5
2019-Jul-20 22:01N 20°29' W 086°59'0 0.5
2019-Jul-20 21:28N 20°29' W 086°59'0 0.0
2019-Jul-20 20:55N 20°29' W 086°59'0 0.0
2019-Jul-20 20:28N 20°29' W 086°59'0 0.0
2019-Jul-20 19:58N 20°29' W 086°59'0 0.0
2019-Jul-20 19:28N 20°29' W 086°59'0 0.0
2019-Jul-20 18:58N 20°29' W 086°59'0 0.0
2019-Jul-20 18:28N 20°29' W 086°59'0 0.0
2019-Jul-20 17:58N 20°29' W 086°59'0 0.0
2019-Jul-20 17:28N 20°29' W 086°59'0 0.0
2019-Jul-20 16:58N 20°29' W 086°59'86 7.8
2019-Jul-20 06:00N 21°54' W 086°48'9720.7 090 / 111015.310.8 27.024.1
2019-Jul-20 01:19N 21°54' W 088°32'720.3
2019-Jul-20 01:00N 21°52' W 088°39'1020.1
2019-Jul-20 00:30N 21°48' W 088°49'2520.2
2019-Jul-19 23:16N 21°40' W 089°14'620.1
2019-Jul-19 22:59N 21°38' W 089°20'919.9
2019-Jul-19 22:30N 21°35' W 089°30'1019.3
2019-Jul-19 22:00N 21°30' W 089°39'713.4
2019-Jul-19 21:31N 21°24' W 089°41'4 6.5
2019-Jul-19 20:57N 21°21' W 089°41'0 0.0
2019-Jul-19 20:30N 21°21' W 089°41'0 0.0
2019-Jul-19 20:00N 21°21' W 089°41'0 0.0
2019-Jul-19 19:30N 21°21' W 089°41'0 0.0
2019-Jul-19 19:00N 21°21' W 089°41'0 0.0
2019-Jul-19 18:30N 21°21' W 089°41'0 0.0
2019-Jul-19 18:00N 21°21' W 089°41'0 0.0
2019-Jul-19 17:27N 21°21' W 089°41'0 0.0
2019-Jul-19 17:00N 21°21' W 089°41'0 0.0
2019-Jul-19 16:30N 21°21' W 089°41'0 0.0
2019-Jul-19 16:00N 21°21' W 089°41'0 0.0
2019-Jul-19 15:24N 21°21' W 089°41'0 0.0
2019-Jul-19 15:00N 21°21' W 089°41'0 0.0
2019-Jul-19 14:30N 21°21' W 089°41'0 0.0
2019-Jul-19 14:00N 21°21' W 089°41'0 0.0
2019-Jul-19 13:30N 21°21' W 089°41'0 0.0
2019-Jul-19 13:00N 21°21' W 089°41'0 0.0
2019-Jul-19 12:30N 21°21' W 089°41'0 0.0
2019-Jul-19 12:00N 21°21' W 089°41'0 0.9
2019-Jul-19 11:30N 21°21' W 089°41'510.6
2019-Jul-19 11:00N 21°26' W 089°41'510.4
2019-Jul-19 10:30N 21°31' W 089°43'613.0
2019-Jul-19 10:00N 21°37' W 089°46'2412.1
2019-Jul-19 08:00N 22°00' W 089°54'35115.3 100 / 251013.6 27.424.3
2019-Jul-18 09:00N 27°24' W 092°24'9315.4 140 / 101016.3 27.824.7
2019-Jul-18 03:00N 28°36' W 093°30'763.4 160 / 131016.5 28.224.530.0
2019-Jul-18 02:53N 28°40' W 093°37'1114.4
2019-Jul-18 02:06N 28°46' W 093°47'415.3
2019-Jul-18 01:51N 28°49' W 093°51'515.0
2019-Jul-18 01:30N 28°52' W 093°56'814.9
2019-Jul-18 01:00N 28°56' W 094°02'1015.0
2019-Jul-18 00:19N 29°02' W 094°12'1914.6
2019-Jul-17 23:02N 29°12' W 094°30'014.7
2019-Jul-17 23:00N 29°12' W 094°31'17 8.1
2019-Jul-17 20:58N 29°19' W 094°48'0 0.0
2019-Jul-17 20:28N 29°18' W 094°48'0 0.0
2019-Jul-17 19:58N 29°18' W 094°48'0 0.0
2019-Jul-17 19:28N 29°19' W 094°48'0 0.0
2019-Jul-17 18:52N 29°19' W 094°48'0 0.0
2019-Jul-17 18:28N 29°19' W 094°48'0 0.0
2019-Jul-17 17:52N 29°19' W 094°48'0 0.0
2019-Jul-17 17:28N 29°19' W 094°48'0 0.0
2019-Jul-17 16:58N 29°19' W 094°48'0 0.0
2019-Jul-17 16:28N 29°19' W 094°48'0 0.0
2019-Jul-17 15:58N 29°19' W 094°48'0 0.0
2019-Jul-17 15:28N 29°19' W 094°48'0 0.0
2019-Jul-17 14:58N 29°19' W 094°48'0 0.0
2019-Jul-17 14:28N 29°19' W 094°48'0 0.0
2019-Jul-17 13:58N 29°19' W 094°48'0 0.0
2019-Jul-17 13:25N 29°19' W 094°48'2 1.0
2019-Jul-17 11:09N 29°20' W 094°46'110.0
2019-Jul-17 11:00N 29°21' W 094°45'12317.6
2019-Jul-17 04:00N 28°12' W 092°48'38020.0 140 / 161017.8 27.725.029.0
2019-Jul-16 09:00N 23°24' W 088°12'157 6.3 120 / 141015.110.8 27.624.5
2019-Jul-15 08:00N 21°18' W 086°30'14018.2 100 / 131013.410.8 27.223.8
2019-Jul-15 00:17N 21°46' W 088°58'620.0
2019-Jul-15 00:01N 21°44' W 089°03'1019.9
2019-Jul-14 23:31N 21°40' W 089°13'1020.0
2019-Jul-14 23:00N 21°37' W 089°24'1019.8
2019-Jul-14 22:31N 21°34' W 089°33'816.9
2019-Jul-14 22:01N 21°28' W 089°40'612.5
2019-Jul-14 21:30N 21°22' W 089°41'2 3.0
2019-Jul-14 21:00N 21°21' W 089°41'0 0.0
2019-Jul-14 20:30N 21°21' W 089°41'0 0.0
2019-Jul-14 20:00N 21°21' W 089°41'0 0.0
2019-Jul-14 19:30N 21°21' W 089°41'0 0.0
2019-Jul-14 18:57N 21°21' W 089°41'0 0.0
2019-Jul-14 18:21N 21°21' W 089°41'0 0.0
2019-Jul-14 18:00N 21°21' W 089°41'0 0.0
2019-Jul-14 17:30N 21°21' W 089°41'0 0.0
2019-Jul-14 17:00N 21°21' W 089°41'0 0.0
2019-Jul-14 16:24N 21°21' W 089°41'0 0.0
2019-Jul-14 16:00N 21°21' W 089°41'0 0.0
2019-Jul-14 15:30N 21°21' W 089°41'0 0.0
2019-Jul-14 15:00N 21°21' W 089°41'0 0.0
2019-Jul-14 14:30N 21°21' W 089°41'0 0.0
2019-Jul-14 13:54N 21°21' W 089°41'0 0.0
2019-Jul-14 13:30N 21°21' W 089°41'0 0.0
2019-Jul-14 13:00N 21°21' W 089°41'0 0.0
2019-Jul-14 12:30N 21°21' W 089°41'0 0.0
2019-Jul-14 12:00N 21°21' W 089°41'1 1.2
2019-Jul-14 11:30N 21°21' W 089°41'510.9
2019-Jul-14 11:00N 21°26' W 089°42'510.7
2019-Jul-14 10:30N 21°31' W 089°43'612.5
2019-Jul-14 10:00N 21°37' W 089°46'2412.0
2019-Jul-14 08:00N 22°00' W 089°54'35314.1 120 / 281011.7 27.823.830.0
2019-Jul-13 07:00N 27°30' W 092°12'12019.2 240 / 501004.1 26.224.828.0
2019-Jul-13 00:45N 28°50' W 093°53'1818.5
2019-Jul-12 23:47N 29°01' W 094°10'518.4
2019-Jul-12 23:30N 29°04' W 094°15'1016.9
2019-Jul-12 22:54N 29°08' W 094°25'716.6
2019-Jul-12 22:30N 29°12' W 094°31'816.9
2019-Jul-12 22:00N 29°18' W 094°38'714.3
2019-Jul-12 21:30N 29°21' W 094°45'3 5.9
2019-Jul-12 21:00N 29°19' W 094°48'0 0.0
2019-Jul-12 20:31N 29°19' W 094°48'0 0.0
2019-Jul-12 20:00N 29°19' W 094°48'0 0.0
2019-Jul-12 19:30N 29°19' W 094°48'0 0.0
2019-Jul-12 19:00N 29°19' W 094°48'0 0.0
2019-Jul-12 18:30N 29°19' W 094°48'0 0.0
2019-Jul-12 18:01N 29°19' W 094°48'0 0.0
2019-Jul-12 17:30N 29°19' W 094°48'0 0.0
2019-Jul-12 17:01N 29°19' W 094°48'0 0.0
2019-Jul-12 16:31N 29°19' W 094°48'0 0.0
2019-Jul-12 16:00N 29°19' W 094°48'0 0.0
2019-Jul-12 15:30N 29°19' W 094°48'0 0.0
2019-Jul-12 15:00N 29°19' W 094°48'0 0.0
2019-Jul-12 14:30N 29°19' W 094°48'0 0.0
2019-Jul-12 14:00N 29°19' W 094°48'0 0.0
2019-Jul-12 13:31N 29°19' W 094°48'  
Track history (hours):
 
Tides and Currents Weather Stations Pressure Air Temp Water Temp Dewpoint Dewpoint Depression Visibility Wind Speed Wind Dir Waves Ship Positions

Enchantment of the Seas (Bahamas)

Last reported at 2019-Jul-22 13:28 UTC. Time now 2019-Jul-22 13:56 UTC.
Position N 29°19' W 094°48'.

Type: Passenger vessel. MMSI: 311733000.

Date/timePositionNaut miles runAvg speedWind from/ knotsBaromVisibWave heightAir tempDewpointWater temp
2019-Jul-22 13:28N 29°19' W 094°48'0 0.0
2019-Jul-22 12:58N 29°19' W 094°48'0 0.0
2019-Jul-22 12:28N 29°19' W 094°48'0 0.0
2019-Jul-22 11:58N 29°19' W 094°48'0 0.1
2019-Jul-22 11:30N 29°19' W 094°48'1 2.5
2019-Jul-22 11:00N 29°19' W 094°47'5 9.5
2019-Jul-22 10:30N 29°21' W 094°42'713.3
2019-Jul-22 10:00N 29°17' W 094°35'66618.9
2019-Jul-20 22:50N 20°40' W 086°53'721.5
2019-Jul-20 22:31N 20°34' W 086°57'510.5
2019-Jul-20 22:01N 20°29' W 086°59'0 0.5
2019-Jul-20 21:28N 20°29' W 086°59'0 0.0
2019-Jul-20 20:55N 20°29' W 086°59'0 0.0
2019-Jul-20 20:28N 20°29' W 086°59'0 0.0
2019-Jul-20 19:58N 20°29' W 086°59'0 0.0
2019-Jul-20 19:28N 20°29' W 086°59'0 0.0
2019-Jul-20 18:58N 20°29' W 086°59'0 0.0
2019-Jul-20 18:28N 20°29' W 086°59'0 0.0
2019-Jul-20 17:58N 20°29' W 086°59'0 0.0
2019-Jul-20 17:28N 20°29' W 086°59'0 0.0
2019-Jul-20 16:58N 20°29' W 086°59'86 7.8
2019-Jul-20 06:00N 21°54' W 086°48'9720.7 090 / 111015.310.8 27.024.1
2019-Jul-20 01:19N 21°54' W 088°32'720.3
2019-Jul-20 01:00N 21°52' W 088°39'1020.1
2019-Jul-20 00:30N 21°48' W 088°49'2520.2
2019-Jul-19 23:16N 21°40' W 089°14'620.1
2019-Jul-19 22:59N 21°38' W 089°20'919.9
2019-Jul-19 22:30N 21°35' W 089°30'1019.3
2019-Jul-19 22:00N 21°30' W 089°39'713.4
2019-Jul-19 21:31N 21°24' W 089°41'4 6.5
2019-Jul-19 20:57N 21°21' W 089°41'0 0.0
2019-Jul-19 20:30N 21°21' W 089°41'0 0.0
2019-Jul-19 20:00N 21°21' W 089°41'0 0.0
2019-Jul-19 19:30N 21°21' W 089°41'0 0.0
2019-Jul-19 19:00N 21°21' W 089°41'0 0.0
2019-Jul-19 18:30N 21°21' W 089°41'0 0.0
2019-Jul-19 18:00N 21°21' W 089°41'0 0.0
2019-Jul-19 17:27N 21°21' W 089°41'0 0.0
2019-Jul-19 17:00N 21°21' W 089°41'0 0.0
2019-Jul-19 16:30N 21°21' W 089°41'0 0.0
2019-Jul-19 16:00N 21°21' W 089°41'0 0.0
2019-Jul-19 15:24N 21°21' W 089°41'0 0.0
2019-Jul-19 15:00N 21°21' W 089°41'0 0.0
2019-Jul-19 14:30N 21°21' W 089°41'0 0.0
2019-Jul-19 14:00N 21°21' W 089°41'0 0.0
2019-Jul-19 13:30N 21°21' W 089°41'0 0.0
2019-Jul-19 13:00N 21°21' W 089°41'0 0.0
2019-Jul-19 12:30N 21°21' W 089°41'0 0.0
2019-Jul-19 12:00N 21°21' W 089°41'0 0.9
2019-Jul-19 11:30N 21°21' W 089°41'510.6
2019-Jul-19 11:00N 21°26' W 089°41'510.4
2019-Jul-19 10:30N 21°31' W 089°43'613.0
2019-Jul-19 10:00N 21°37' W 089°46'2412.1
2019-Jul-19 08:00N 22°00' W 089°54'35115.3 100 / 251013.6 27.424.3
2019-Jul-18 09:00N 27°24' W 092°24'9315.4 140 / 101016.3 27.824.7
2019-Jul-18 03:00N 28°36' W 093°30'763.4 160 / 131016.5 28.224.530.0
2019-Jul-18 02:53N 28°40' W 093°37'1114.4
2019-Jul-18 02:06N 28°46' W 093°47'415.3
2019-Jul-18 01:51N 28°49' W 093°51'515.0
2019-Jul-18 01:30N 28°52' W 093°56'814.9
2019-Jul-18 01:00N 28°56' W 094°02'1015.0
2019-Jul-18 00:19N 29°02' W 094°12'1914.6
2019-Jul-17 23:02N 29°12' W 094°30'014.7
2019-Jul-17 23:00N 29°12' W 094°31'17 8.1
2019-Jul-17 20:58N 29°19' W 094°48'0 0.0
2019-Jul-17 20:28N 29°18' W 094°48'0 0.0
2019-Jul-17 19:58N 29°18' W 094°48'0 0.0
2019-Jul-17 19:28N 29°19' W 094°48'0 0.0
2019-Jul-17 18:52N 29°19' W 094°48'0 0.0
2019-Jul-17 18:28N 29°19' W 094°48'0 0.0
2019-Jul-17 17:52N 29°19' W 094°48'0 0.0
2019-Jul-17 17:28N 29°19' W 094°48'0 0.0
2019-Jul-17 16:58N 29°19' W 094°48'0 0.0
2019-Jul-17 16:28N 29°19' W 094°48'0 0.0
2019-Jul-17 15:58N 29°19' W 094°48'0 0.0
2019-Jul-17 15:28N 29°19' W 094°48'0 0.0
2019-Jul-17 14:58N 29°19' W 094°48'0 0.0
2019-Jul-17 14:28N 29°19' W 094°48'0 0.0
2019-Jul-17 13:58N 29°19' W 094°48'0 0.0
2019-Jul-17 13:25N 29°19' W 094°48'2 1.0
2019-Jul-17 11:09N 29°20' W 094°46'110.0
2019-Jul-17 11:00N 29°21' W 094°45'12317.6
2019-Jul-17 04:00N 28°12' W 092°48'38020.0 140 / 161017.8 27.725.029.0
2019-Jul-16 09:00N 23°24' W 088°12'157 6.3 120 / 141015.110.8 27.624.5
2019-Jul-15 08:00N 21°18' W 086°30'14018.2 100 / 131013.410.8 27.223.8
2019-Jul-15 00:17N 21°46' W 088°58'620.0
2019-Jul-15 00:01N 21°44' W 089°03'1019.9
2019-Jul-14 23:31N 21°40' W 089°13'1020.0
2019-Jul-14 23:00N 21°37' W 089°24'1019.8
2019-Jul-14 22:31N 21°34' W 089°33'816.9
2019-Jul-14 22:01N 21°28' W 089°40'612.5
2019-Jul-14 21:30N 21°22' W 089°41'2 3.0
2019-Jul-14 21:00N 21°21' W 089°41'0 0.0
2019-Jul-14 20:30N 21°21' W 089°41'0 0.0
2019-Jul-14 20:00N 21°21' W 089°41'0 0.0
2019-Jul-14 19:30N 21°21' W 089°41'0 0.0
2019-Jul-14 18:57N 21°21' W 089°41'0 0.0
2019-Jul-14 18:21N 21°21' W 089°41'0 0.0
2019-Jul-14 18:00N 21°21' W 089°41'0 0.0
2019-Jul-14 17:30N 21°21' W 089°41'0 0.0
2019-Jul-14 17:00N 21°21' W 089°41'0 0.0
2019-Jul-14 16:24N 21°21' W 089°41'0 0.0
2019-Jul-14 16:00N 21°21' W 089°41'0 0.0
2019-Jul-14 15:30N 21°21' W 089°41'0 0.0
2019-Jul-14 15:00N 21°21' W 089°41'0 0.0
2019-Jul-14 14:30N 21°21' W 089°41'0 0.0
2019-Jul-14 13:54N 21°21' W 089°41'0 0.0
2019-Jul-14 13:30N 21°21' W 089°41'0 0.0
2019-Jul-14 13:00N 21°21' W 089°41'0 0.0
2019-Jul-14 12:30N 21°21' W 089°41'0 0.0
2019-Jul-14 12:00N 21°21' W 089°41'1 1.2
2019-Jul-14 11:30N 21°21' W 089°41'510.9
2019-Jul-14 11:00N 21°26' W 089°42'510.7
2019-Jul-14 10:30N 21°31' W 089°43'612.5
2019-Jul-14 10:00N 21°37' W 089°46'2412.0
2019-Jul-14 08:00N 22°00' W 089°54'35314.1 120 / 281011.7 27.823.830.0
2019-Jul-13 07:00N 27°30' W 092°12'12019.2 240 / 501004.1 26.224.828.0
2019-Jul-13 00:45N 28°50' W 093°53'1818.5
2019-Jul-12 23:47N 29°01' W 094°10'518.4
2019-Jul-12 23:30N 29°04' W 094°15'1016.9
2019-Jul-12 22:54N 29°08' W 094°25'716.6
2019-Jul-12 22:30N 29°12' W 094°31'816.9
2019-Jul-12 22:00N 29°18' W 094°38'714.3
2019-Jul-12 21:30N 29°21' W 094°45'3 5.9
2019-Jul-12 21:00N 29°19' W 094°48'0 0.0
2019-Jul-12 20:31N 29°19' W 094°48'0 0.0
2019-Jul-12 20:00N 29°19' W 094°48'0 0.0
2019-Jul-12 19:30N 29°19' W 094°48'0 0.0
2019-Jul-12 19:00N 29°19' W 094°48'0 0.0
2019-Jul-12 18:30N 29°19' W 094°48'0 0.0
2019-Jul-12 18:01N 29°19' W 094°48'0 0.0
2019-Jul-12 17:30N 29°19' W 094°48'0 0.0
2019-Jul-12 17:01N 29°19' W 094°48'0 0.0
2019-Jul-12 16:31N 29°19' W 094°48'0 0.0
2019-Jul-12 16:00N 29°19' W 094°48'0 0.0
2019-Jul-12 15:30N 29°19' W 094°48'0 0.0
2019-Jul-12 15:00N 29°19' W 094°48'0 0.0
2019-Jul-12 14:30N 29°19' W 094°48'0 0.0
2019-Jul-12 14:00N 29°19' W 094°48'0 0.0
2019-Jul-12 13:31N 29°19' W 094°48'  

Dump ship's entire track history